createdAt,value
2018-01-15T00:00:31.017Z,19.70
2018-01-15T00:02:58.604Z,20.40
2018-01-15T00:05:26.140Z,17.95
2018-01-15T00:07:53.714Z,15.68
2018-01-15T00:10:21.252Z,16.55
2018-01-15T00:12:48.831Z,16.42
2018-01-15T00:15:16.364Z,15.70
2018-01-15T00:17:43.947Z,16.67
2018-01-15T00:20:11.483Z,15.82
2018-01-15T00:22:39.061Z,17.10
2018-01-15T00:25:06.601Z,24.30
2018-01-15T00:27:34.183Z,21.45
2018-01-15T00:30:01.717Z,18.37
2018-01-15T00:32:29.292Z,19.50
2018-01-15T00:34:56.836Z,18.98
2018-01-15T00:37:24.412Z,18.10
2018-01-15T00:39:51.946Z,16.10
2018-01-15T00:42:19.527Z,21.45
2018-01-15T00:44:47.087Z,19.95
2018-01-15T00:47:14.666Z,19.75
2018-01-15T00:49:42.206Z,16.80
2018-01-15T00:52:09.783Z,17.40
2018-01-15T00:54:37.321Z,18.75
2018-01-15T00:57:04.851Z,23.20
2018-01-15T00:59:33.191Z,18.02
2018-01-15T01:02:00.723Z,16.98
2018-01-15T01:04:28.299Z,17.42
2018-01-15T01:06:55.831Z,16.17
2018-01-15T01:09:23.403Z,14.00
2018-01-15T01:11:50.985Z,18.80
2018-01-15T01:14:18.598Z,18.55
2018-01-15T01:16:46.176Z,14.77
2018-01-15T01:19:13.707Z,17.83
2018-01-15T01:21:42.052Z,20.48
2018-01-15T01:24:09.592Z,27.40
2018-01-15T01:26:37.170Z,27.42
2018-01-15T01:29:04.703Z,21.95
2018-01-15T01:31:32.280Z,20.30
2018-01-15T01:33:59.820Z,18.48
2018-01-15T01:36:27.402Z,21.45
2018-01-15T01:38:55.039Z,18.05
2018-01-15T01:41:22.615Z,19.25
2018-01-15T01:43:50.147Z,14.02
2018-01-15T01:46:17.730Z,16.30
2018-01-15T01:48:46.155Z,52.10
2018-01-15T01:51:14.498Z,35.85
2018-01-15T01:53:42.049Z,23.40
2018-01-15T01:56:09.629Z,19.48
2018-01-15T01:58:37.166Z,19.20
2018-01-15T02:01:04.699Z,15.25
2018-01-15T02:03:32.276Z,15.60
2018-01-15T02:05:59.806Z,14.60
2018-01-15T02:08:28.148Z,17.25
2018-01-15T02:10:55.688Z,17.15
2018-01-15T02:13:23.272Z,17.98
2018-01-15T02:15:50.803Z,17.10
2018-01-15T02:18:18.379Z,15.30
2018-01-15T02:20:45.928Z,15.85
2018-01-15T02:23:13.500Z,15.82
2018-01-15T02:25:41.128Z,16.92
2018-01-15T02:28:08.699Z,15.57
2018-01-15T02:30:36.236Z,18.65
2018-01-15T02:33:03.816Z,17.85
2018-01-15T02:35:31.368Z,15.95
2018-01-15T02:37:58.939Z,15.20
2018-01-15T02:40:26.467Z,17.05
2018-01-15T02:42:54.048Z,16.00
2018-01-15T02:45:21.588Z,15.23
2018-01-15T02:47:49.172Z,13.85
2018-01-15T02:50:16.703Z,18.87
2018-01-15T02:52:44.277Z,15.27
2018-01-15T02:55:11.815Z,16.23
2018-01-15T02:57:40.164Z,16.20
2018-01-15T03:00:07.704Z,18.50
2018-01-15T03:02:35.275Z,16.60
2018-01-15T03:05:02.812Z,15.98
2018-01-15T03:07:30.391Z,19.62
2018-01-15T03:09:57.928Z,15.80
2018-01-15T03:12:25.508Z,18.62
2018-01-15T03:14:53.056Z,17.58
2018-01-15T03:17:20.627Z,17.15
2018-01-15T03:19:48.165Z,17.20
2018-01-15T03:22:15.756Z,16.20
2018-01-15T03:24:43.298Z,18.40
2018-01-15T03:27:10.876Z,17.83
2018-01-15T03:29:38.406Z,16.25
2018-01-15T03:32:05.988Z,18.20
2018-01-15T03:34:33.539Z,19.85
2018-01-15T03:37:01.110Z,17.85
2018-01-15T03:39:28.644Z,18.65
2018-01-15T03:41:56.225Z,18.65
2018-01-15T03:44:24.548Z,16.65
2018-01-15T03:46:52.126Z,18.20
2018-01-15T03:49:19.673Z,15.70
2018-01-15T03:51:47.260Z,17.60
2018-01-15T03:54:14.791Z,18.50
2018-01-15T03:56:42.367Z,17.95
2018-01-15T03:59:09.902Z,17.98
2018-01-15T04:01:38.240Z,15.90
2018-01-15T04:04:05.785Z,18.40
2018-01-15T04:06:33.369Z,19.50
2018-01-15T04:09:00.905Z,18.92
2018-01-15T04:11:28.484Z,19.35
2018-01-15T04:13:56.019Z,17.80
2018-01-15T04:16:23.599Z,17.62
2018-01-15T04:18:51.135Z,19.12
2018-01-15T04:21:18.719Z,19.25
2018-01-15T04:23:46.259Z,23.67
2018-01-15T04:26:13.834Z,21.42
2018-01-15T04:28:41.368Z,20.00
2018-01-15T04:31:08.944Z,22.98
2018-01-15T04:33:36.484Z,23.17
2018-01-15T04:36:04.060Z,23.42
2018-01-15T04:38:31.603Z,21.73
2018-01-15T04:40:59.181Z,22.23
2018-01-15T04:43:26.718Z,23.02
2018-01-15T04:45:54.297Z,25.65
2018-01-15T04:48:21.825Z,20.48
2018-01-15T04:50:49.403Z,21.08
2018-01-15T04:53:16.936Z,28.02
2018-01-15T04:55:44.518Z,22.00
2018-01-15T04:58:12.055Z,23.02
2018-01-15T05:00:39.634Z,20.50
2018-01-15T05:03:07.163Z,22.02
2018-01-15T05:05:35.503Z,24.30
2018-01-15T05:08:03.041Z,22.83
2018-01-15T05:10:30.612Z,23.33
2018-01-15T05:12:58.144Z,21.83
2018-01-15T05:15:25.730Z,21.60
2018-01-15T05:17:53.271Z,28.27
2018-01-15T05:20:20.843Z,24.67
2018-01-15T05:22:48.385Z,24.20
2018-01-15T05:25:15.968Z,26.73
2018-01-15T05:27:43.507Z,24.42
2018-01-15T05:30:11.042Z,23.98
2018-01-15T05:32:38.622Z,27.17
2018-01-15T05:35:06.159Z,26.80
2018-01-15T05:37:34.636Z,23.95
2018-01-15T05:40:03.025Z,24.17
2018-01-15T05:42:30.562Z,25.48
2018-01-15T05:44:58.897Z,23.80
2018-01-15T05:47:26.436Z,27.27
2018-01-15T05:49:53.967Z,23.70
2018-01-15T05:52:22.305Z,27.48
2018-01-15T05:54:49.900Z,27.80
2018-01-15T05:57:18.208Z,27.20
2018-01-15T05:59:45.743Z,30.10
2018-01-15T06:02:14.084Z,36.05
2018-01-15T06:04:41.616Z,27.85
2018-01-15T06:07:09.198Z,27.35
2018-01-15T06:09:36.732Z,26.55
2018-01-15T06:12:04.304Z,29.70
2018-01-15T06:14:31.970Z,27.58
2018-01-15T06:16:59.564Z,32.90
2018-01-15T06:19:27.876Z,28.33
2018-01-15T06:21:55.455Z,28.83
2018-01-15T06:24:22.999Z,28.33
2018-01-15T06:26:50.574Z,31.15
2018-01-15T06:29:18.111Z,28.02
2018-01-15T06:31:45.697Z,26.25
2018-01-15T06:34:13.231Z,29.95
2018-01-15T06:36:40.808Z,34.75
2018-01-15T06:39:08.350Z,34.83
2018-01-15T06:41:35.939Z,32.35
2018-01-15T06:44:03.472Z,31.83
2018-01-15T06:46:31.055Z,30.42
2018-01-15T06:48:58.591Z,33.38
2018-01-15T06:51:26.168Z,29.17
2018-01-15T06:53:53.708Z,28.12
2018-01-15T06:56:21.284Z,32.30
2018-01-15T06:58:48.820Z,30.60
2018-01-15T07:01:16.403Z,29.20
2018-01-15T07:03:43.936Z,35.90
2018-01-15T07:06:11.517Z,35.97
2018-01-15T07:08:39.050Z,33.25
2018-01-15T07:11:07.395Z,31.20
2018-01-15T07:13:34.940Z,31.25
2018-01-15T07:16:02.522Z,31.52
2018-01-15T07:18:30.828Z,34.13
2018-01-15T07:20:59.167Z,31.45
2018-01-15T07:23:26.691Z,33.35
2018-01-15T07:25:54.270Z,35.40
2018-01-15T07:28:21.805Z,35.78
2018-01-15T07:30:49.382Z,30.60
2018-01-15T07:33:16.914Z,30.37
2018-01-15T07:35:44.506Z,29.80
2018-01-15T07:38:12.049Z,31.37
2018-01-15T07:40:39.626Z,30.60
2018-01-15T07:43:07.170Z,31.98
2018-01-15T07:45:34.745Z,35.50
2018-01-15T07:48:02.283Z,31.95
2018-01-15T07:50:29.859Z,29.02
2018-01-15T07:52:57.391Z,31.25
2018-01-15T07:55:24.967Z,30.70
2018-01-15T07:57:52.501Z,31.50
2018-01-15T08:00:20.839Z,35.75
2018-01-15T08:02:48.385Z,28.42
2018-01-15T08:05:15.966Z,34.20
2018-01-15T08:07:43.583Z,31.40
2018-01-15T08:10:11.164Z,33.63
2018-01-15T08:12:38.709Z,34.25
2018-01-15T08:15:06.284Z,36.42
2018-01-15T08:17:33.821Z,31.02
2018-01-15T08:20:01.401Z,32.88
2018-01-15T08:22:28.940Z,35.08
2018-01-15T08:24:56.519Z,30.10
2018-01-15T08:27:24.127Z,33.30
2018-01-15T08:29:51.687Z,31.87
2018-01-15T08:32:19.987Z,33.20
2018-01-15T08:34:47.564Z,26.25
2018-01-15T08:37:15.120Z,35.10
2018-01-15T08:39:42.696Z,31.02
2018-01-15T08:42:10.232Z,32.20
2018-01-15T08:44:37.812Z,31.30
2018-01-15T08:47:05.342Z,26.58
2018-01-15T08:49:32.924Z,31.15
2018-01-15T08:52:00.467Z,37.45
2018-01-15T08:54:28.044Z,28.33
2018-01-15T08:56:55.573Z,29.95
2018-01-15T08:59:23.148Z,32.00
2018-01-15T09:01:50.692Z,27.87
2018-01-15T09:04:18.267Z,30.92
2018-01-15T09:06:45.808Z,28.70
2018-01-15T09:09:13.392Z,26.12
2018-01-15T09:11:40.931Z,28.60
2018-01-15T09:14:08.528Z,28.40
2018-01-15T09:16:36.063Z,25.88
2018-01-15T09:19:03.636Z,28.33
2018-01-15T09:21:31.174Z,25.73
2018-01-15T09:23:58.744Z,30.17
2018-01-15T09:26:26.271Z,32.08
2018-01-15T09:28:54.615Z,30.73
2018-01-15T09:31:22.148Z,28.52
2018-01-15T09:33:49.807Z,28.38
2018-01-15T09:36:17.348Z,30.90
2018-01-15T09:38:44.926Z,28.77
2018-01-15T09:41:12.463Z,45.92
2018-01-15T09:43:40.048Z,28.20
2018-01-15T09:46:08.374Z,30.10
2018-01-15T09:48:35.956Z,28.25
2018-01-15T09:51:04.258Z,28.02
2018-01-15T09:53:31.838Z,28.80
2018-01-15T09:55:59.380Z,28.67
2018-01-15T09:58:26.959Z,26.45
2018-01-15T10:00:54.497Z,26.17
2018-01-15T10:03:22.078Z,29.05
2018-01-15T10:05:49.609Z,25.62
2018-01-15T10:08:17.188Z,23.38
2018-01-15T10:10:44.724Z,24.02
2018-01-15T10:13:12.299Z,23.23
2018-01-15T10:15:39.836Z,26.62
2018-01-15T10:18:07.419Z,24.90
2018-01-15T10:20:34.951Z,22.45
2018-01-15T10:23:02.526Z,24.87
2018-01-15T10:25:30.059Z,24.50
2018-01-15T10:27:58.395Z,21.65
2018-01-15T10:30:25.935Z,25.73
2018-01-15T10:32:53.518Z,28.42
2018-01-15T10:35:21.043Z,23.30
2018-01-15T10:37:48.615Z,23.52
2018-01-15T10:40:16.162Z,25.37
2018-01-15T10:42:43.749Z,30.98
2018-01-15T10:45:11.282Z,25.20
2018-01-15T10:47:38.863Z,23.17
2018-01-15T10:50:06.401Z,25.85
2018-01-15T10:52:33.982Z,21.70
2018-01-15T10:55:01.517Z,23.23
2018-01-15T10:57:29.094Z,26.70
2018-01-15T10:59:56.630Z,21.45
2018-01-15T11:02:24.210Z,24.05
2018-01-15T11:04:51.752Z,24.02
2018-01-15T11:07:19.330Z,27.40
2018-01-15T11:09:46.868Z,23.75
2018-01-15T11:12:14.453Z,24.20
2018-01-15T11:14:41.987Z,22.15
2018-01-15T11:17:09.669Z,24.80
2018-01-15T11:22:04.784Z,21.48
2018-01-15T11:24:32.324Z,25.00
2018-01-15T11:26:59.931Z,23.75
2018-01-15T11:29:27.502Z,24.05
2018-01-15T11:31:55.041Z,24.35
2018-01-15T11:34:22.571Z,30.52
2018-01-15T11:36:50.150Z,21.98
2018-01-15T11:39:17.691Z,21.05
2018-01-15T11:41:45.263Z,27.27
2018-01-15T11:44:12.796Z,29.05
2018-01-15T11:46:41.135Z,24.23
2018-01-15T11:49:08.677Z,23.30
2018-01-15T11:51:36.251Z,20.55
2018-01-15T11:54:03.790Z,15.65
2018-01-15T11:56:31.365Z,17.33
2018-01-15T11:58:58.911Z,24.55
2018-01-15T12:01:26.482Z,14.50
2018-01-15T12:03:54.017Z,22.08
2018-01-15T12:06:21.592Z,17.50
2018-01-15T12:08:49.122Z,16.73
2018-01-15T12:11:16.701Z,16.55
2018-01-15T12:13:44.236Z,18.83
2018-01-15T12:16:11.816Z,24.60
2018-01-15T12:18:39.352Z,18.80
2018-01-15T12:21:06.930Z,17.75
2018-01-15T12:23:34.473Z,20.48
2018-01-15T12:26:02.068Z,18.92
2018-01-15T12:28:29.611Z,13.10
2018-01-15T12:30:57.197Z,22.55
2018-01-15T12:33:24.735Z,15.80
2018-01-15T12:35:52.317Z,21.15
2018-01-15T12:38:19.861Z,12.80
2018-01-15T12:40:47.446Z,17.55
2018-01-15T12:43:14.988Z,16.05
2018-01-15T12:45:42.567Z,16.45
2018-01-15T12:48:10.113Z,13.23
2018-01-15T12:50:37.720Z,14.95
2018-01-15T12:53:05.259Z,23.90
2018-01-15T12:55:33.604Z,15.63
2018-01-15T12:58:01.137Z,12.02
2018-01-15T13:00:28.719Z,18.75
2018-01-15T13:02:56.254Z,15.20
2018-01-15T13:05:35.731Z,14.90
2018-01-15T13:08:09.956Z,12.43
2018-01-15T13:10:37.541Z,13.27
2018-01-15T13:13:05.845Z,15.85
2018-01-15T13:15:33.425Z,21.27
2018-01-15T13:18:00.968Z,17.20
2018-01-15T13:20:28.548Z,18.62
2018-01-15T13:22:56.079Z,17.80
2018-01-15T13:25:23.659Z,20.15
2018-01-15T13:27:51.196Z,16.80
2018-01-15T13:30:18.767Z,14.55
2018-01-15T13:32:46.300Z,18.00
2018-01-15T13:35:14.640Z,17.83
2018-01-15T13:37:42.172Z,15.95
2018-01-15T13:40:09.752Z,17.35
2018-01-15T13:42:37.285Z,14.43
2018-01-15T13:45:04.868Z,21.15
2018-01-15T13:47:32.409Z,18.98
2018-01-15T13:49:59.985Z,17.30
2018-01-15T13:52:27.518Z,18.58
2018-01-15T13:54:55.095Z,17.35
2018-01-15T13:57:22.629Z,17.08
2018-01-15T13:59:50.311Z,26.62
2018-01-15T14:02:17.844Z,13.90
2018-01-15T14:04:46.174Z,14.93
2018-01-15T14:07:13.707Z,16.52
2018-01-15T14:09:41.284Z,18.48
2018-01-15T14:12:08.863Z,27.00
2018-01-15T14:14:36.403Z,19.95
2018-01-15T14:17:03.995Z,24.45
2018-01-15T14:19:31.527Z,33.10
2018-01-15T14:21:59.063Z,22.13
2018-01-15T14:24:26.644Z,21.65
2018-01-15T14:26:54.230Z,23.02
2018-01-15T14:29:21.771Z,21.73
2018-01-15T14:31:49.342Z,29.37
2018-01-15T14:34:16.886Z,27.00
2018-01-15T14:36:44.478Z,33.38
2018-01-15T14:39:12.798Z,30.80
2018-01-15T14:41:40.375Z,25.88
2018-01-15T14:44:07.903Z,28.55
2018-01-15T14:46:35.490Z,22.55
2018-01-15T14:49:03.022Z,25.05
2018-01-15T14:51:30.618Z,23.38
2018-01-15T14:53:58.204Z,31.60
2018-01-15T14:56:25.736Z,24.08
2018-01-15T14:58:53.391Z,31.00
2018-01-15T15:01:20.923Z,23.23
2018-01-15T15:03:48.499Z,25.27
2018-01-15T15:06:16.044Z,27.90
2018-01-15T15:08:43.624Z,34.08
2018-01-15T15:11:11.168Z,24.12
2018-01-15T15:13:38.747Z,24.08
2018-01-15T15:16:06.288Z,24.67
2018-01-15T15:18:33.871Z,30.42
2018-01-15T15:21:01.413Z,28.35
2018-01-15T15:23:28.991Z,29.23
2018-01-15T15:25:56.523Z,27.85
2018-01-15T15:28:24.101Z,32.70
2018-01-15T15:30:51.647Z,28.83
2018-01-15T15:33:19.232Z,26.98
2018-01-15T15:35:46.768Z,26.00
2018-01-15T15:38:14.336Z,32.20
2018-01-15T15:40:41.881Z,25.23
2018-01-15T15:43:09.667Z,26.52
2018-01-15T15:45:37.206Z,32.00
2018-01-15T15:48:04.783Z,27.23
2018-01-15T15:50:32.328Z,24.48
2018-01-15T15:52:59.902Z,25.02
2018-01-15T15:55:27.431Z,27.35
2018-01-15T15:57:55.017Z,26.67
2018-01-15T16:00:22.563Z,22.87
2018-01-15T16:02:50.139Z,26.98
2018-01-15T16:05:17.672Z,27.33
2018-01-15T16:07:45.258Z,17.85
2018-01-15T16:10:12.789Z,18.52
2018-01-15T16:12:40.367Z,25.15
2018-01-15T16:15:07.891Z,19.70
2018-01-15T16:17:36.236Z,41.20
2018-01-15T16:20:03.776Z,35.90
2018-01-15T16:22:33.133Z,30.50
2018-01-15T16:25:01.434Z,21.60
2018-01-15T16:27:29.005Z,26.62
2018-01-15T16:29:56.537Z,23.55
2018-01-15T16:32:24.872Z,20.80
2018-01-15T16:34:52.399Z,22.77
2018-01-15T16:37:20.070Z,14.35
2018-01-15T16:39:47.596Z,16.90
2018-01-15T16:42:15.941Z,15.65
2018-01-15T16:44:43.476Z,16.55
2018-01-15T16:47:11.059Z,16.52
2018-01-15T16:49:38.587Z,30.85
2018-01-15T16:52:06.164Z,16.98
2018-01-15T16:54:33.698Z,23.17
2018-01-15T16:57:01.285Z,14.13
2018-01-15T16:59:28.825Z,20.45
2018-01-15T17:01:56.431Z,20.80
2018-01-15T17:04:23.977Z,24.52
2018-01-15T17:06:51.557Z,18.55
2018-01-15T17:09:19.884Z,13.15
2018-01-15T17:11:47.490Z,13.02
2018-01-15T17:14:15.798Z,18.33
2018-01-15T17:16:43.371Z,9.43
2018-01-15T17:19:10.912Z,24.65
2018-01-15T17:21:38.495Z,20.50
2018-01-15T17:24:06.086Z,10.30
2018-01-15T17:26:33.643Z,15.57
2018-01-15T17:29:01.233Z,14.00
2018-01-15T17:31:29.538Z,15.40
2018-01-15T17:33:57.124Z,15.33
2018-01-15T17:36:24.705Z,17.57
2018-01-15T17:38:52.289Z,13.80
2018-01-15T17:41:20.589Z,19.90
2018-01-15T17:43:48.172Z,13.03
2018-01-15T17:46:15.704Z,12.03
2018-01-15T17:48:44.053Z,12.67
2018-01-15T17:51:11.632Z,13.17
2018-01-15T17:53:39.941Z,11.80
2018-01-15T17:56:07.544Z,14.33
2018-01-15T17:58:35.084Z,14.10
2018-01-15T18:01:02.631Z,11.20
2018-01-15T18:03:30.228Z,15.93
2018-01-15T18:05:57.813Z,13.30
2018-01-15T18:08:26.120Z,14.33
2018-01-15T18:10:53.699Z,15.90
2018-01-15T18:13:21.239Z,10.27
2018-01-15T18:15:48.821Z,13.27
2018-01-15T18:18:16.357Z,11.87
2018-01-15T18:20:43.934Z,35.23
2018-01-15T18:23:11.474Z,10.60
2018-01-15T18:25:39.054Z,10.57
2018-01-15T18:28:06.587Z,10.37
2018-01-15T18:30:34.172Z,31.70
2018-01-15T18:33:01.761Z,13.43
2018-01-15T18:35:29.294Z,13.30
2018-01-15T18:37:56.868Z,12.33
2018-01-15T18:40:24.399Z,12.40
2018-01-15T18:42:51.980Z,11.10
2018-01-15T18:45:19.539Z,10.80
2018-01-15T18:47:47.182Z,14.50
2018-01-15T18:50:14.710Z,11.33
2018-01-15T18:52:43.051Z,11.67
2018-01-15T18:55:10.592Z,11.37
2018-01-15T18:57:38.172Z,12.97
2018-01-15T19:00:05.711Z,11.90
2018-01-15T19:02:33.288Z,19.70
2018-01-15T19:05:00.832Z,22.27
2018-01-15T19:07:28.450Z,19.83
2018-01-15T19:09:56.746Z,14.60
2018-01-15T19:12:24.333Z,20.07
2018-01-15T19:14:51.863Z,13.57
2018-01-15T19:17:19.441Z,15.03
2018-01-15T19:19:46.989Z,18.57
2018-01-15T19:22:14.615Z,18.37
2018-01-15T19:24:42.912Z,13.60
2018-01-15T19:27:10.492Z,12.13
2018-01-15T19:29:38.043Z,12.30
2018-01-15T19:32:05.629Z,13.90
2018-01-15T19:34:33.207Z,12.43
2018-01-15T19:37:07.557Z,15.07
2018-01-15T19:39:35.860Z,17.13
2018-01-15T19:42:03.442Z,20.60
2018-01-15T19:44:45.952Z,14.90
2018-01-15T19:47:19.178Z,17.03
2018-01-15T19:49:52.557Z,16.47
2018-01-15T19:52:25.744Z,17.77
2018-01-15T19:54:58.969Z,18.53
2018-01-15T19:57:32.911Z,15.73
2018-01-15T20:00:06.266Z,16.73
2018-01-15T20:02:39.525Z,19.67
2018-01-15T20:05:27.943Z,17.57
2018-01-15T20:08:01.444Z,23.83
2018-01-15T20:10:34.599Z,19.10
2018-01-15T20:13:02.324Z,22.63
2018-01-15T20:15:30.024Z,15.93
2018-01-15T20:17:57.716Z,19.90
2018-01-15T20:20:25.305Z,21.75
2018-01-15T20:22:52.891Z,23.13
2018-01-15T20:25:20.488Z,22.37
2018-01-15T20:27:48.835Z,18.53
2018-01-15T20:30:16.441Z,20.10
2018-01-15T20:32:44.057Z,19.73
2018-01-15T20:35:11.642Z,19.90
2018-01-15T20:37:39.993Z,25.77
2018-01-15T20:40:07.616Z,21.20
2018-01-15T20:42:35.243Z,22.23
2018-01-15T20:45:03.590Z,19.60
2018-01-15T20:47:31.189Z,21.37
2018-01-15T20:49:59.535Z,19.63
2018-01-15T20:52:27.279Z,20.73
2018-01-15T20:54:54.816Z,21.60
2018-01-15T20:57:22.442Z,20.90
2018-01-15T20:59:50.797Z,22.70
2018-01-15T21:02:18.388Z,26.20
2018-01-15T21:04:46.698Z,24.65
2018-01-15T21:07:14.328Z,25.73
2018-01-15T21:09:42.673Z,21.67
2018-01-15T21:12:10.288Z,25.90
2018-01-15T21:14:37.883Z,21.10
2018-01-15T21:17:05.460Z,29.10
2018-01-15T21:19:32.996Z,24.53
2018-01-15T21:22:00.632Z,24.33
2018-01-15T21:24:28.224Z,23.05
2018-01-15T21:26:55.888Z,22.30
2018-01-15T21:29:23.470Z,22.40
2018-01-15T21:31:51.061Z,24.07
2018-01-15T21:34:18.686Z,23.97
2018-01-15T21:36:46.268Z,24.95
2018-01-15T21:39:14.623Z,22.62
2018-01-15T21:41:42.217Z,21.23
2018-01-15T21:44:09.845Z,28.77
2018-01-15T21:46:37.388Z,18.25
2018-01-15T21:49:04.975Z,20.58
2018-01-15T21:51:33.327Z,23.12
2018-01-15T21:54:00.903Z,25.25
2018-01-15T21:56:28.492Z,26.77
2018-01-15T21:58:56.117Z,26.73
2018-01-15T22:01:23.705Z,26.23
2018-01-15T22:03:52.097Z,26.05
2018-01-15T22:06:19.695Z,27.90
2018-01-15T22:08:47.240Z,24.67
2018-01-15T22:11:16.523Z,20.75
2018-01-15T22:13:44.157Z,22.08
2018-01-15T22:16:12.518Z,21.58
2018-01-15T22:18:40.100Z,20.23
2018-01-15T22:21:08.412Z,20.80
2018-01-15T22:23:36.004Z,32.33
2018-01-15T22:26:03.549Z,26.17
2018-01-15T22:28:31.136Z,26.40
2018-01-15T22:30:58.680Z,22.27
2018-01-15T22:33:26.268Z,21.50
2018-01-15T22:35:53.849Z,20.48
2018-01-15T22:38:22.200Z,21.83
2018-01-15T22:40:49.751Z,19.95
2018-01-15T22:43:17.339Z,22.35
2018-01-15T22:45:45.662Z,19.23
2018-01-15T22:48:13.244Z,21.80
2018-01-15T22:50:40.786Z,23.33
2018-01-15T22:53:08.375Z,19.48
2018-01-15T22:55:35.918Z,20.83
2018-01-15T22:58:03.513Z,20.02
2018-01-15T23:00:31.827Z,15.10
2018-01-15T23:02:59.410Z,12.00
2018-01-15T23:05:26.956Z,14.23
2018-01-15T23:07:54.527Z,12.35
2018-01-15T23:10:22.063Z,11.52
2018-01-15T23:12:49.641Z,10.52
2018-01-15T23:15:17.195Z,9.43
2018-01-15T23:17:44.775Z,14.52
2018-01-15T23:20:12.309Z,8.23
2018-01-15T23:22:39.888Z,6.35
2018-01-15T23:25:07.417Z,4.87
2018-01-15T23:27:34.992Z,6.45
2018-01-15T23:30:02.542Z,3.95
2018-01-15T23:32:30.120Z,6.12
2018-01-15T23:34:57.666Z,5.93
2018-01-15T23:37:25.248Z,5.43
2018-01-15T23:39:52.783Z,5.78
2018-01-15T23:42:20.363Z,6.30
2018-01-15T23:44:47.902Z,7.25
2018-01-15T23:47:15.484Z,5.20
2018-01-15T23:49:43.019Z,4.12
2018-01-15T23:52:10.591Z,4.60
2018-01-15T23:54:38.124Z,2.60
2018-01-15T23:57:05.708Z,6.75
2018-01-15T23:59:33.236Z,4.40
